Sheakleyville, Pennsylvania
Current Conditions -  °F | °C
As of 1:53 AM on Sunday 23 Nov 2014 (Local Time) from KGKJ Reporting Station
Overcast Overcast  
Wind Chill: 41°   Ceiling: 3900
Heat Index: 45°   Visibility: 10mi
Dew Point: 31°   Wind: 7mph
Humidity: 58%   Direction: 190°S
Pressure: 30.04"   Gusts: NA
Location:  41.44°N, 80.21°W
Report Text: KGKJ 230653Z AUTO 19006KT 10SM OVC039 07/M01 A3004 RMK AO2 SLP181 T00721006 TSNO
Loading
Personal Weather Stations






























Interactive Weather Map New forecast layout! Learn more

10-Day Weather Forecast

Advertisements
Track Severe Weather on mobile